x

Buoy E01 - Central Maine Shelf (44032) Wave Buoy

11:04pm - Wed 14th Nov 2018 All times are EST. -5 hours from GMT.

  • Sig Wave height 4.6ft
  • Peak Period 4s
  • Wind
    29mph, 36mph gusts
  • Sea Temp 50°f
  • Air Temp 25°f
  • Sea Pressure 1032.3mb
  • Buoy E01 - Central Maine Shelf
  • Buoy E01 - Central Maine Shelf

More Historic Weather Station data

Upgrade to MSW Pro to gain access to the past 30 days of data for over 8000 Wavebouys and Weather Stations around the globe.

Join

Comparision Forecast

View Surf forecast
   
Wed 11/14 11:04pm 4.5ft 4s 29 36 mph 1032.3mb 50f 25f
10:04pm 5ft 5s 27 34 mph 1032.1mb 50f 24f
9:04pm 5ft 5s 29 38 mph 1031.2mb 50f 25f
8:04pm  -   -  29 38 mph 1030.5mb - 26f
7:04pm 5ft 5s 29 36 mph 1029.8mb 50f 26f
6:04pm 5ft 4s 31 40 mph 1028.5mb 50f 26f
5:04pm 5.5ft 5s 31 43 mph 1026.5mb 50f 26f
4:04pm 6ft 5s 31 38 mph 1025.7mb 50f 27f
3:04pm 5.5ft 5s 29 36 mph 1024.7mb 50f 26f
2:04pm 6.5ft 5s 34 45 mph 1022.7mb 50f 28f
12:04pm 7ft 5s 31 36 mph 1021.3mb 50f 29f
6:04am 5ft 4s 29 34 mph 1016.3mb 50f 30f
5:04am 7ft 5s 31 38 mph 1015.6mb 50f 30f
4:04am 7.5ft 5s 36 43 mph 1014.1mb 50f 31f
3:04am 8.5ft 5s 34 45 mph 1012.8mb 51f 32f
2:04am 7ft 5s 38 47 mph 1011.4mb 51f 35f
1:04am 7ft 8s 27 36 mph 1009.8mb 51f 39f
12:04am 6ft 8s 29 34 mph 1008.6mb 51f 42f
Tue 11/13 11:04pm 3.5ft 4s 27 34 mph 1007.6mb 51f 44f
10:04pm 6ft 8s 22 27 mph 1006.4mb 51f 43f
9:04pm 7ft 8s 25 31 mph 1005.7mb 51f 43f
8:04pm 7.5ft 8s 27 34 mph 1005mb 51f 44f
7:04pm 6ft 8s 25 29 mph 1002.9mb 51f 43f
5:04pm 8ft 8s 27 31 mph 1000.7mb 51f 46f
4:04pm 8ft 8s 20 25 mph 1000.1mb 51f 50f
3:04pm 12ft 8s 16 18 mph 1001.8mb 51f 50f
2:04pm 9ft 8s 13 18 mph 1004.9mb 51f 50f
12:04pm 11ft 8s 29 34 mph 1010.2mb 51f 51f
11:04am 8ft 6s 27 36 mph 1012.5mb 50f 50f
10:04am 6ft 5s 27 31 mph 1015.3mb 50f 49f
9:04am 4.5ft 5s 25 34 mph 1017.9mb 50f 48f
8:04am 4.5ft 5s 22 27 mph 1019.9mb 51f 47f
7:04am 4ft 5s 20 22 mph 1021.4mb 51f 45f
6:04am 3.5ft 5s 20 25 mph 1023mb 51f 46f
5:04am 3ft 5s 18 22 mph 1023.9mb 51f 47f
4:04am 2.5ft 5s 2 7 mph 1024.4mb 51f 45f
3:04am 3ft 5s 11 13 mph 1025.2mb 51f 47f
2:04am 2.5ft 5s 11 13 mph 1026.1mb 51f 48f
1:04am 2.5ft 4s 16 20 mph 1026.9mb 51f 48f
12:04am 2.5ft 4s 16 20 mph 1027.3mb 51f 49f
Mon 11/12 11:04pm 2ft 4s 16 18 mph 1027.4mb 51f 48f
10:04pm 1.6ft 4s 13 16 mph 1028.2mb 51f 48f
9:04pm 1.6ft 4s 11 13 mph 1028.1mb 51f 47f
8:04pm 2ft 4s 9 11 mph 1027.9mb 51f 47f
7:04pm 1.6ft 4s 11 13 mph 1028.4mb 51f 46f
6:04pm 1.3ft 4s 9 11 mph 1028.8mb 51f 44f
5:04pm 1.6ft 4s 9 11 mph 1028.3mb 51f 44f
4:04pm 2ft 3s 11 13 mph 1027.9mb 51f 43f
3:04pm 2ft 3s 13 16 mph 1027.3mb 51f 42f
2:04pm 1.6ft 4s 16 20 mph 1027.1mb 51f 41f
1:04pm 2ft 3s 11 16 mph 1027mb 51f 40f
12:04pm 2ft 3s 13 18 mph 1027.5mb 51f 40f
11:04am 1.6ft 5s 13 16 mph 1028.1mb 51f 39f
10:04am 1.6ft 5s 9 13 mph 1028.5mb 51f 38f
9:04am 2ft 5s 11 13 mph 1028.1mb 51f 37f
8:04am 2.5ft 5s  -  mph - 51f -
6:04am 3.5ft 4s 20 22 mph 1027.2mb 51f 37f
5:04am 3.5ft 3s 22 27 mph 1026.8mb 51f 36f
4:04am 3ft 3s 20 27 mph 1026.1mb 51f 36f
1:04am 3ft 3s 20 25 mph 1025.1mb 51f 37f
12:04am  -   -  18 22 mph 1024.8mb - 37f
Sun 11/11 11:04pm 2.5ft 5s 20 27 mph 1024.5mb 51f 38f
10:04pm 2.5ft 5s 16 20 mph 1024.4mb 51f 37f
9:04pm 3.5ft 5s 18 20 mph 1024.1mb 51f 38f
7:04pm 3.5ft 5s 18 20 mph 1023.1mb 51f 38f
6:04pm 3.5ft 5s 16 20 mph 1022.5mb 51f 38f
5:04pm 3.5ft 5s 18 25 mph 1021.7mb 51f 39f
4:04pm 3.5ft 5s 20 25 mph 1020.6mb 51f 40f
3:04pm 3.5ft 5s 18 25 mph 1020.3mb 51f 40f
2:04pm 3ft 5s 16 20 mph 1020mb 51f 39f
1:04pm 3.5ft 5s 16 20 mph 1020mb 51f 38f
12:04pm 3.5ft 5s 18 25 mph 1020mb 51f 37f
10:04am 4.5ft 6s 20 25 mph 1020.6mb 51f 36f
9:04am 4.5ft 6s 18 22 mph 1020.4mb 51f 36f
8:04am 5ft 6s 25 29 mph 1019.8mb 51f 36f
7:04am 6ft 6s 22 31 mph 1019.2mb 51f 37f